createdAt,value
2022-09-24T00:00:29.229Z,88
2022-09-24T00:01:35.759Z,88
2022-09-24T00:02:43.277Z,88
2022-09-24T00:03:49.964Z,89
2022-09-24T00:04:57.002Z,89
2022-09-24T00:06:04.054Z,89
2022-09-24T00:07:10.706Z,89
2022-09-24T00:08:17.798Z,89
2022-09-24T00:09:24.919Z,89
2022-09-24T00:10:31.952Z,89
2022-09-24T00:11:39.119Z,89
2022-09-24T00:12:45.682Z,89
2022-09-24T00:13:52.788Z,89
2022-09-24T00:17:14.097Z,89
2022-09-24T00:18:21.251Z,89
2022-09-24T00:19:27.814Z,89
2022-09-24T00:20:34.877Z,89
2022-09-24T00:21:42.037Z,89
2022-09-24T00:22:49.135Z,89
2022-09-24T00:23:55.661Z,89
2022-09-24T00:25:02.810Z,89
2022-09-24T00:26:09.881Z,89
2022-09-24T00:27:17.040Z,89
2022-09-24T00:28:24.077Z,89
2022-09-24T00:29:30.713Z,89
2022-09-24T00:30:37.831Z,89
2022-09-24T00:31:44.921Z,89
2022-09-24T00:32:52.019Z,89
2022-09-24T00:33:59.830Z,89
2022-09-24T00:35:05.704Z,89
2022-09-24T00:36:12.794Z,89
2022-09-24T00:37:20.112Z,89
2022-09-24T00:38:27.000Z,89
2022-09-24T00:39:33.607Z,89
2022-09-24T00:40:40.740Z,89
2022-09-24T00:41:47.912Z,89
2022-09-24T00:42:54.926Z,89
2022-09-24T00:44:02.146Z,89
2022-09-24T00:45:08.612Z,89
2022-09-24T00:47:22.912Z,89
2022-09-24T00:48:29.899Z,89
2022-09-24T00:49:37.075Z,88
2022-09-24T00:50:44.297Z,88
2022-09-24T00:51:50.709Z,89
2022-09-24T00:52:58.165Z,89
2022-09-24T00:54:05.014Z,88
2022-09-24T00:55:12.052Z,88
2022-09-24T00:56:18.608Z,88
2022-09-24T00:58:33.092Z,88
2022-09-24T00:59:39.932Z,88
2022-09-24T01:00:47.079Z,88
2022-09-24T01:01:53.663Z,88
2022-09-24T01:03:00.748Z,88
2022-09-24T01:04:07.865Z,88
2022-09-24T01:05:14.908Z,88
2022-09-24T01:06:27.306Z,88
2022-09-24T01:07:34.508Z,88
2022-09-24T01:08:35.724Z,88
2022-09-24T01:09:43.053Z,88
2022-09-24T01:10:49.945Z,88
2022-09-24T01:11:57.079Z,88
2022-09-24T01:13:09.101Z,88
2022-09-24T01:15:18.368Z,88
2022-09-24T01:16:24.936Z,88
2022-09-24T01:17:32.080Z,88
2022-09-24T01:19:45.747Z,88
2022-09-24T01:20:52.812Z,88
2022-09-24T01:21:59.946Z,88
2022-09-24T01:23:07.087Z,88
2022-09-24T01:24:13.685Z,88
2022-09-24T01:25:20.871Z,88
2022-09-24T01:26:27.890Z,88
2022-09-24T01:27:34.946Z,88
2022-09-24T01:28:41.507Z,88
2022-09-24T01:29:48.648Z,88
2022-09-24T01:30:56.309Z,88
2022-09-24T01:32:02.849Z,89
2022-09-24T01:33:10.003Z,89
2022-09-24T01:34:17.115Z,89
2022-09-24T01:35:23.694Z,89
2022-09-24T01:36:30.759Z,89
2022-09-24T01:37:38.415Z,89
2022-09-24T01:39:52.095Z,89
2022-09-24T01:40:58.672Z,89
2022-09-24T01:43:12.857Z,89
2022-09-24T01:44:19.990Z,89
2022-09-24T01:45:26.637Z,89
2022-09-24T01:46:33.776Z,89
2022-09-24T01:47:40.775Z,89
2022-09-24T01:48:48.924Z,90
2022-09-24T01:49:55.035Z,90
2022-09-24T01:51:01.696Z,90
2022-09-24T01:52:08.720Z,90
2022-09-24T01:53:15.829Z,90
2022-09-24T01:54:22.927Z,90
2022-09-24T01:55:30.100Z,91
2022-09-24T01:56:37.672Z,91
2022-09-24T01:57:43.683Z,91
2022-09-24T01:58:50.827Z,91
2022-09-24T01:59:57.958Z,91
2022-09-24T02:01:05.174Z,91
2022-09-24T02:02:12.190Z,91
2022-09-24T02:03:18.680Z,91
2022-09-24T02:04:25.916Z,91
2022-09-24T02:05:32.878Z,91
2022-09-24T02:06:40.142Z,91
2022-09-24T02:07:46.633Z,91
2022-09-24T02:08:53.698Z,91
2022-09-24T02:10:00.817Z,91
2022-09-24T02:11:07.984Z,91
2022-09-24T02:12:14.981Z,91
2022-09-24T02:13:27.406Z,91
2022-09-24T02:14:29.866Z,91
2022-09-24T02:15:35.862Z,91
2022-09-24T02:16:43.427Z,91
2022-09-24T02:17:50.100Z,91
2022-09-24T02:18:56.658Z,91
2022-09-24T02:21:10.896Z,91
2022-09-24T02:23:25.002Z,91
2022-09-24T02:24:31.643Z,90
2022-09-24T02:25:38.763Z,90
2022-09-24T02:26:48.522Z,90
2022-09-24T02:27:52.899Z,90
2022-09-24T02:29:00.078Z,90
2022-09-24T02:30:06.699Z,91
2022-09-24T02:31:13.702Z,91
2022-09-24T02:32:20.875Z,91
2022-09-24T02:33:27.972Z,91
2022-09-24T02:34:35.051Z,91
2022-09-24T02:35:41.674Z,91
2022-09-24T02:36:48.732Z,91
2022-09-24T02:37:56.445Z,91
2022-09-24T02:39:02.946Z,91
2022-09-24T02:40:10.236Z,91
2022-09-24T02:41:17.739Z,91
2022-09-24T02:42:23.760Z,91
2022-09-24T02:43:30.858Z,91
2022-09-24T02:44:37.987Z,92
2022-09-24T02:45:45.030Z,92
2022-09-24T02:46:51.728Z,92
2022-09-24T02:47:58.786Z,92
2022-09-24T02:49:05.905Z,92
2022-09-24T02:50:12.933Z,92
2022-09-24T02:51:20.070Z,92
2022-09-24T02:52:26.739Z,92
2022-09-24T02:53:33.742Z,92
2022-09-24T02:54:40.897Z,92
2022-09-24T02:55:48.142Z,91
2022-09-24T02:56:54.578Z,92
2022-09-24T02:58:01.706Z,91
2022-09-24T03:00:15.942Z,92
2022-09-24T03:01:23.072Z,91
2022-09-24T03:02:29.802Z,91
2022-09-24T03:03:36.665Z,91
2022-09-24T03:04:43.831Z,91
2022-09-24T03:05:50.936Z,91
2022-09-24T03:06:58.013Z,91
2022-09-24T03:08:04.575Z,91
2022-09-24T03:09:11.726Z,91
2022-09-24T03:10:18.820Z,91
2022-09-24T03:11:25.876Z,91
2022-09-24T03:13:40.164Z,91
2022-09-24T03:14:46.680Z,91
2022-09-24T03:15:53.781Z,91
2022-09-24T03:17:00.943Z,91
2022-09-24T03:18:08.003Z,91
2022-09-24T03:19:15.642Z,91
2022-09-24T03:20:21.703Z,91
2022-09-24T03:21:28.848Z,91
2022-09-24T03:22:35.938Z,91
2022-09-24T03:23:43.045Z,92
2022-09-24T03:24:49.673Z,92
2022-09-24T03:27:03.828Z,92
2022-09-24T03:28:10.976Z,92
2022-09-24T03:29:18.046Z,92
2022-09-24T03:30:24.634Z,92
2022-09-24T03:31:31.732Z,91
2022-09-24T03:32:38.838Z,91
2022-09-24T03:33:45.967Z,91
2022-09-24T03:34:53.080Z,91
2022-09-24T03:35:59.661Z,91
2022-09-24T03:37:06.700Z,91
2022-09-24T03:38:13.947Z,91
2022-09-24T03:39:20.984Z,91
2022-09-24T03:41:34.650Z,91
2022-09-24T03:42:41.743Z,91
2022-09-24T03:43:48.882Z,91
2022-09-24T03:44:56.496Z,92
2022-09-24T03:46:03.130Z,91
2022-09-24T03:47:09.686Z,91
2022-09-24T03:48:16.791Z,91
2022-09-24T03:49:23.871Z,91
2022-09-24T03:50:30.977Z,91
2022-09-24T03:51:38.080Z,91
2022-09-24T03:52:44.604Z,91
2022-09-24T03:53:51.784Z,91
2022-09-24T03:54:58.976Z,91
2022-09-24T03:56:05.934Z,91
2022-09-24T03:57:13.023Z,91
2022-09-24T03:58:19.633Z,91
2022-09-24T03:59:26.780Z,91
2022-09-24T04:00:37.593Z,91
2022-09-24T04:01:41.017Z,91
2022-09-24T04:02:48.141Z,92
2022-09-24T04:03:54.668Z,92
2022-09-24T04:05:01.757Z,92
2022-09-24T04:06:08.899Z,92
2022-09-24T04:07:15.991Z,92
2022-09-24T04:08:22.554Z,92
2022-09-24T04:09:29.723Z,92
2022-09-24T04:10:36.789Z,92
2022-09-24T04:11:43.853Z,92
2022-09-24T04:12:50.958Z,92
2022-09-24T04:13:57.593Z,92
2022-09-24T04:15:05.707Z,92
2022-09-24T04:16:11.842Z,92
2022-09-24T04:17:19.007Z,93
2022-09-24T04:18:26.011Z,93
2022-09-24T04:19:32.523Z,93
2022-09-24T04:20:39.712Z,93
2022-09-24T04:21:46.813Z,93
2022-09-24T04:22:53.925Z,93
2022-09-24T04:24:01.074Z,93
2022-09-24T04:25:12.636Z,93
2022-09-24T04:26:14.721Z,93
2022-09-24T04:28:28.922Z,93
2022-09-24T04:30:42.573Z,94
2022-09-24T04:31:49.836Z,94
2022-09-24T04:32:56.866Z,94
2022-09-24T04:34:03.902Z,94
2022-09-24T04:35:11.027Z,95
2022-09-24T04:36:17.652Z,95
2022-09-24T04:37:24.721Z,95
2022-09-24T04:38:31.828Z,95
2022-09-24T04:39:38.903Z,95
2022-09-24T04:40:46.055Z,95
2022-09-24T04:41:53.651Z,96
2022-09-24T04:43:00.305Z,96
2022-09-24T04:44:06.890Z,96
2022-09-24T04:45:13.868Z,96
2022-09-24T04:46:21.091Z,97
2022-09-24T04:47:27.610Z,96
2022-09-24T04:48:35.294Z,97
2022-09-24T04:49:41.852Z,97
2022-09-24T04:50:48.877Z,97
2022-09-24T04:51:56.040Z,97
2022-09-24T04:53:02.594Z,97
2022-09-24T04:54:09.843Z,97
2022-09-24T04:55:16.825Z,97
2022-09-24T04:56:23.894Z,97
2022-09-24T04:57:31.060Z,98
2022-09-24T04:58:37.625Z,97
2022-09-24T04:59:44.752Z,97
2022-09-24T05:00:51.863Z,97
2022-09-24T05:01:59.152Z,97
2022-09-24T05:03:06.143Z,97
2022-09-24T05:04:12.626Z,97
2022-09-24T05:05:19.795Z,97
2022-09-24T05:06:26.833Z,97
2022-09-24T05:07:33.960Z,97
2022-09-24T05:08:41.072Z,97
2022-09-24T05:09:47.637Z,97
2022-09-24T05:12:01.868Z,97
2022-09-24T05:13:09.072Z,97
2022-09-24T05:14:16.080Z,97
2022-09-24T05:15:22.800Z,97
2022-09-24T05:16:29.788Z,97
2022-09-24T05:17:36.895Z,97
2022-09-24T05:18:44.023Z,97
2022-09-24T05:19:50.579Z,97
2022-09-24T05:20:57.676Z,97
2022-09-24T05:22:04.749Z,97
2022-09-24T05:23:12.400Z,98
2022-09-24T05:24:19.015Z,98
2022-09-24T05:25:25.578Z,97
2022-09-24T05:26:32.771Z,98
2022-09-24T05:27:39.718Z,98
2022-09-24T05:28:46.923Z,98
2022-09-24T05:29:53.972Z,98
2022-09-24T05:31:00.651Z,98
2022-09-24T05:32:07.699Z,98
2022-09-24T05:34:21.878Z,98
2022-09-24T05:35:29.017Z,98
2022-09-24T05:36:37.769Z,98
2022-09-24T05:37:42.687Z,98
2022-09-24T05:39:56.865Z,98
2022-09-24T05:41:03.988Z,98
2022-09-24T05:42:10.614Z,98
2022-09-24T05:43:17.665Z,98
2022-09-24T05:44:24.739Z,98
2022-09-24T05:45:31.876Z,98
2022-09-24T05:46:39.014Z,98
2022-09-24T05:47:45.639Z,98
2022-09-24T05:48:52.790Z,98
2022-09-24T05:49:59.982Z,98
2022-09-24T05:51:06.946Z,98
2022-09-24T05:52:14.485Z,98
2022-09-24T05:53:20.629Z,98
2022-09-24T05:54:27.741Z,98
2022-09-24T05:56:41.908Z,98
2022-09-24T05:57:49.021Z,98
2022-09-24T05:58:55.604Z,98
2022-09-24T06:00:02.701Z,98
2022-09-24T06:01:09.831Z,98
2022-09-24T06:02:16.957Z,98
2022-09-24T06:03:24.083Z,98
2022-09-24T06:04:31.151Z,98
2022-09-24T06:05:37.692Z,98
2022-09-24T06:07:51.969Z,98
2022-09-24T06:08:59.049Z,98
2022-09-24T06:10:05.640Z,98
2022-09-24T06:11:12.729Z,98
2022-09-24T06:12:19.857Z,98
2022-09-24T06:13:27.994Z,98
2022-09-24T06:14:34.024Z,98
2022-09-24T06:15:40.723Z,98
2022-09-24T06:16:48.712Z,98
2022-09-24T06:17:54.850Z,98
2022-09-24T06:19:02.058Z,98
2022-09-24T06:20:09.091Z,98
2022-09-24T06:21:15.675Z,98
2022-09-24T06:22:28.189Z,98
2022-09-24T06:23:29.876Z,98
2022-09-24T06:24:36.935Z,98
2022-09-24T06:25:44.041Z,98
2022-09-24T06:26:50.725Z,98
2022-09-24T06:27:57.782Z,98
2022-09-24T06:29:05.472Z,98
2022-09-24T06:30:11.973Z,98
2022-09-24T06:31:18.623Z,98
2022-09-24T06:32:25.668Z,98
2022-09-24T06:33:32.764Z,98
2022-09-24T06:34:39.891Z,98
2022-09-24T06:35:46.991Z,98
2022-09-24T06:38:00.662Z,98
2022-09-24T06:39:07.927Z,98
2022-09-24T06:40:14.902Z,98
2022-09-24T06:41:22.500Z,98
2022-09-24T06:42:28.612Z,98
2022-09-24T06:43:35.722Z,98
2022-09-24T06:44:42.764Z,98
2022-09-24T06:46:57.102Z,98
2022-09-24T06:48:04.073Z,98
2022-09-24T06:49:10.797Z,98
2022-09-24T06:50:17.833Z,98
2022-09-24T06:51:24.905Z,98
2022-09-24T06:52:31.989Z,98
2022-09-24T06:53:38.628Z,98
2022-09-24T06:54:45.703Z,98
2022-09-24T06:55:53.308Z,98
2022-09-24T06:56:59.865Z,98
2022-09-24T06:58:07.054Z,98
2022-09-24T06:59:13.586Z,98
2022-09-24T07:00:20.717Z,98
2022-09-24T07:01:27.820Z,98
2022-09-24T07:02:34.999Z,98
2022-09-24T07:03:42.037Z,98
2022-09-24T07:04:48.615Z,98
2022-09-24T07:05:55.728Z,98
2022-09-24T07:07:04.584Z,98
2022-09-24T07:08:09.968Z,98
2022-09-24T07:10:23.685Z,98
2022-09-24T07:11:30.723Z,98
2022-09-24T07:12:37.788Z,98
2022-09-24T07:13:48.834Z,98
2022-09-24T07:14:52.039Z,98
2022-09-24T07:15:58.636Z,98
2022-09-24T07:17:05.776Z,98
2022-09-24T07:18:12.826Z,98
2022-09-24T07:19:19.972Z,98
2022-09-24T07:20:27.008Z,98
2022-09-24T07:21:33.581Z,98
2022-09-24T07:22:40.684Z,98
2022-09-24T07:24:54.880Z,98
2022-09-24T07:26:02.044Z,98
2022-09-24T07:28:15.751Z,98
2022-09-24T07:29:22.832Z,98
2022-09-24T07:30:29.985Z,98
2022-09-24T07:31:37.214Z,98
2022-09-24T07:32:43.641Z,98
2022-09-24T07:33:50.754Z,98
2022-09-24T07:34:57.859Z,98
2022-09-24T07:36:04.936Z,98
2022-09-24T07:38:18.683Z,98
2022-09-24T07:39:25.767Z,98
2022-09-24T07:41:42.313Z,98
2022-09-24T07:42:47.033Z,98
2022-09-24T07:43:53.590Z,98
2022-09-24T07:45:00.764Z,98
2022-09-24T07:46:07.919Z,98
2022-09-24T07:47:15.779Z,98
2022-09-24T07:48:22.148Z,98
2022-09-24T07:49:28.694Z,98
2022-09-24T07:50:35.780Z,98
2022-09-24T07:51:42.841Z,98
2022-09-24T07:52:50.020Z,98
2022-09-24T07:53:56.556Z,98
2022-09-24T07:55:03.663Z,98
2022-09-24T07:56:10.704Z,98
2022-09-24T07:57:18.181Z,98
2022-09-24T07:58:24.931Z,98
2022-09-24T07:59:32.596Z,98
2022-09-24T08:00:38.805Z,98
2022-09-24T08:01:45.857Z,98
2022-09-24T08:02:52.862Z,98
2022-09-24T08:04:00.023Z,98
2022-09-24T08:06:13.693Z,98
2022-09-24T08:07:20.785Z,98
2022-09-24T08:09:34.980Z,100
2022-09-24T08:10:41.605Z,100
2022-09-24T08:11:48.701Z,100
2022-09-24T08:12:55.774Z,100
2022-09-24T08:14:02.965Z,100
2022-09-24T08:15:09.996Z,100
2022-09-24T08:16:16.679Z,100
2022-09-24T08:17:23.623Z,100
2022-09-24T08:18:30.772Z,100
2022-09-24T08:19:37.865Z,100
2022-09-24T08:20:44.972Z,100
2022-09-24T08:21:51.558Z,100
2022-09-24T08:22:58.733Z,100
2022-09-24T08:24:05.930Z,100
2022-09-24T08:25:12.943Z,100
2022-09-24T08:26:20.635Z,100
2022-09-24T08:27:26.574Z,100
2022-09-24T08:28:33.720Z,100
2022-09-24T08:29:40.856Z,100
2022-09-24T08:30:47.992Z,100
2022-09-24T08:31:55.058Z,100
2022-09-24T08:33:01.603Z,100
2022-09-24T08:34:08.791Z,100
2022-09-24T08:35:15.877Z,100
2022-09-24T08:36:23.023Z,100
2022-09-24T08:37:30.062Z,100
2022-09-24T08:38:36.647Z,100
2022-09-24T08:39:43.690Z,100
2022-09-24T08:40:50.998Z,100
2022-09-24T08:41:57.922Z,100
2022-09-24T08:43:07.698Z,100
2022-09-24T08:45:18.764Z,100
2022-09-24T08:46:26.014Z,100
2022-09-24T08:47:32.875Z,100
2022-09-24T08:48:40.098Z,100
2022-09-24T08:50:53.740Z,100
2022-09-24T08:53:07.912Z,100
2022-09-24T08:54:15.054Z,100
2022-09-24T08:55:21.717Z,100
2022-09-24T08:56:28.743Z,100
2022-09-24T08:57:35.835Z,100
2022-09-24T08:58:44.644Z,100
2022-09-24T08:59:49.587Z,100
2022-09-24T09:00:56.632Z,100
2022-09-24T09:02:03.817Z,100
2022-09-24T09:03:11.506Z,100
2022-09-24T09:04:17.946Z,99
2022-09-24T09:05:24.561Z,99
2022-09-24T09:06:31.668Z,99
2022-09-24T09:07:40.360Z,99
2022-09-24T09:09:05.778Z,99
2022-09-24T09:09:52.951Z,97
2022-09-24T09:11:00.141Z,95
2022-09-24T09:12:06.665Z,94
2022-09-24T09:13:13.806Z,93
2022-09-24T09:14:20.896Z,93
2022-09-24T09:15:27.945Z,92
2022-09-24T09:16:34.637Z,92
2022-09-24T09:17:41.691Z,91
2022-09-24T09:18:48.750Z,91
2022-09-24T09:19:55.900Z,90
2022-09-24T09:21:02.967Z,90
2022-09-24T09:22:09.598Z,90
2022-09-24T09:23:16.689Z,90
2022-09-24T09:24:23.767Z,89
2022-09-24T09:25:30.866Z,89
2022-09-24T09:26:38.053Z,89
2022-09-24T09:27:44.526Z,89
2022-09-24T09:28:51.752Z,89
2022-09-24T09:29:58.821Z,88
2022-09-24T09:32:12.938Z,88
2022-09-24T09:33:19.616Z,88
2022-09-24T09:34:26.705Z,88
2022-09-24T09:36:44.443Z,87
2022-09-24T09:37:48.254Z,87
2022-09-24T09:38:54.543Z,87
2022-09-24T09:40:01.673Z,86
2022-09-24T09:41:08.862Z,86
2022-09-24T09:42:15.842Z,86
2022-09-24T09:43:23.008Z,86
2022-09-24T09:44:29.653Z,86
2022-09-24T09:45:36.728Z,85
2022-09-24T09:46:43.834Z,85
2022-09-24T09:48:58.059Z,84
2022-09-24T09:50:04.586Z,84
2022-09-24T09:51:12.409Z,84
2022-09-24T09:52:18.821Z,83
2022-09-24T09:53:25.909Z,83
2022-09-24T09:54:33.026Z,83
2022-09-24T09:55:39.624Z,83
2022-09-24T09:56:48.857Z,82
2022-09-24T09:57:53.834Z,82
2022-09-24T09:59:00.914Z,82
2022-09-24T10:00:08.012Z,82
2022-09-24T10:01:14.880Z,82
2022-09-24T10:02:21.909Z,82
2022-09-24T10:04:35.966Z,82
2022-09-24T10:05:42.508Z,82
2022-09-24T10:06:50.134Z,81
2022-09-24T10:07:56.759Z,81
2022-09-24T10:09:03.820Z,81
2022-09-24T10:10:10.957Z,81
2022-09-24T10:11:17.536Z,81
2022-09-24T10:13:31.702Z,81
2022-09-24T10:14:38.878Z,81
2022-09-24T10:15:46.055Z,80
2022-09-24T10:16:52.591Z,80
2022-09-24T10:17:59.621Z,80
2022-09-24T10:19:06.783Z,80
2022-09-24T10:21:24.814Z,79
2022-09-24T10:22:27.742Z,79
2022-09-24T10:23:34.653Z,79
2022-09-24T10:24:41.903Z,78
2022-09-24T10:25:48.885Z,78
2022-09-24T10:26:56.039Z,78
2022-09-24T10:28:02.727Z,78
2022-09-24T10:29:09.677Z,78
2022-09-24T10:30:16.815Z,78
2022-09-24T10:31:23.942Z,78
2022-09-24T10:32:30.952Z,78
2022-09-24T10:33:37.698Z,77
2022-09-24T10:34:44.613Z,77
2022-09-24T10:35:51.832Z,77
2022-09-24T10:36:58.896Z,77
2022-09-24T10:38:06.521Z,77
2022-09-24T10:39:12.699Z,77
2022-09-24T10:40:19.783Z,77
2022-09-24T10:41:26.708Z,77
2022-09-24T10:42:33.823Z,77
2022-09-24T10:43:40.550Z,77
2022-09-24T10:44:52.630Z,77
2022-09-24T10:45:54.699Z,76
2022-09-24T10:47:01.901Z,76
2022-09-24T10:48:08.847Z,76
2022-09-24T10:49:16.104Z,76
2022-09-24T10:50:22.518Z,76
2022-09-24T10:52:36.859Z,76
2022-09-24T10:54:51.043Z,76
2022-09-24T10:55:57.646Z,76
2022-09-24T10:57:04.622Z,75
2022-09-24T10:58:11.816Z,75
2022-09-24T10:59:18.923Z,75
2022-09-24T11:00:25.473Z,75
2022-09-24T11:01:32.664Z,74
2022-09-24T11:02:39.860Z,73
2022-09-24T11:03:46.771Z,73
2022-09-24T11:04:53.859Z,73
2022-09-24T11:06:00.434Z,73
2022-09-24T11:07:07.661Z,73
2022-09-24T11:08:14.728Z,72
2022-09-24T11:09:21.906Z,72
2022-09-24T11:10:29.419Z,72
2022-09-24T11:11:35.457Z,72
2022-09-24T11:12:42.554Z,71
2022-09-24T11:13:51.603Z,71
2022-09-24T11:14:56.891Z,71
2022-09-24T11:16:03.951Z,71
2022-09-24T11:17:11.825Z,71
2022-09-24T11:18:17.665Z,71
2022-09-24T11:19:24.741Z,71
2022-09-24T11:20:31.918Z,71
2022-09-24T11:21:38.906Z,71
2022-09-24T11:22:45.585Z,71
2022-09-24T11:23:52.674Z,71
2022-09-24T11:24:59.699Z,71
2022-09-24T11:26:06.820Z,71
2022-09-24T11:27:13.978Z,71
2022-09-24T11:28:20.643Z,71
2022-09-24T11:29:27.696Z,71
2022-09-24T11:30:34.716Z,71
2022-09-24T11:31:41.932Z,71
2022-09-24T11:32:48.966Z,71
2022-09-24T11:36:09.809Z,70
2022-09-24T11:37:16.896Z,71
2022-09-24T11:38:23.885Z,70
2022-09-24T11:39:30.474Z,70
2022-09-24T11:40:37.778Z,70
2022-09-24T11:41:44.706Z,70
2022-09-24T11:42:51.927Z,70
2022-09-24T11:43:58.499Z,69
2022-09-24T11:45:05.625Z,69
2022-09-24T11:46:12.762Z,69
2022-09-24T11:47:19.888Z,69
2022-09-24T11:49:33.387Z,69
2022-09-24T11:50:43.735Z,69
2022-09-24T11:51:47.683Z,68
2022-09-24T11:52:54.800Z,68
2022-09-24T11:54:02.028Z,68
2022-09-24T11:55:08.508Z,68
2022-09-24T11:56:15.593Z,68
2022-09-24T11:57:22.703Z,68
2022-09-24T11:58:29.760Z,68
2022-09-24T11:59:36.908Z,68
2022-09-24T12:00:43.915Z,68
2022-09-24T12:02:57.849Z,68
2022-09-24T12:04:04.719Z,68
2022-09-24T12:05:11.908Z,69
2022-09-24T12:06:18.448Z,69
2022-09-24T12:07:25.639Z,68
2022-09-24T12:08:32.711Z,68
2022-09-24T12:09:39.760Z,68
2022-09-24T12:10:46.848Z,68
2022-09-24T12:11:53.535Z,68
2022-09-24T12:13:00.517Z,68
2022-09-24T12:14:08.369Z,68
2022-09-24T12:15:14.834Z,68
2022-09-24T12:17:28.642Z,68
2022-09-24T12:18:35.577Z,68
2022-09-24T12:19:42.632Z,68
2022-09-24T12:20:49.781Z,67
2022-09-24T12:21:56.992Z,67
2022-09-24T12:23:03.489Z,67
2022-09-24T12:24:10.686Z,67
2022-09-24T12:25:17.769Z,67
2022-09-24T12:26:24.744Z,67
2022-09-24T12:27:32.466Z,67
2022-09-24T12:28:38.537Z,67
2022-09-24T12:30:52.818Z,68
2022-09-24T12:31:59.944Z,68
2022-09-24T12:33:07.876Z,69
2022-09-24T12:34:13.548Z,69
2022-09-24T12:35:20.662Z,69
2022-09-24T12:36:27.758Z,70
2022-09-24T12:37:34.785Z,70
2022-09-24T12:38:41.911Z,70
2022-09-24T12:39:48.558Z,70
2022-09-24T12:40:55.805Z,70
2022-09-24T12:42:02.835Z,70
2022-09-24T12:43:09.914Z,70
2022-09-24T12:44:21.731Z,70
2022-09-24T12:45:23.546Z,70
2022-09-24T12:46:30.765Z,71
2022-09-24T12:47:38.456Z,71
2022-09-24T12:48:44.906Z,71
2022-09-24T12:49:52.046Z,71
2022-09-24T12:50:58.605Z,71
2022-09-24T12:52:05.608Z,71
2022-09-24T12:53:12.796Z,71
2022-09-24T12:54:19.915Z,71
2022-09-24T12:55:26.479Z,71
2022-09-24T12:56:33.534Z,70
2022-09-24T12:59:54.917Z,70
2022-09-24T13:01:01.567Z,70
2022-09-24T13:02:08.794Z,70
2022-09-24T13:03:15.681Z,70
2022-09-24T13:04:22.782Z,70
2022-09-24T13:05:30.764Z,70
2022-09-24T13:06:36.481Z,69
2022-09-24T13:07:43.541Z,69
2022-09-24T13:08:50.741Z,70
2022-09-24T13:09:57.792Z,70
2022-09-24T13:11:05.059Z,70
2022-09-24T13:12:11.930Z,70
2022-09-24T13:13:18.590Z,69
2022-09-24T13:14:25.594Z,69
2022-09-24T13:15:32.992Z,70
2022-09-24T13:17:46.957Z,70
2022-09-24T13:18:53.591Z,70
2022-09-24T13:20:00.682Z,70
2022-09-24T13:21:07.891Z,70
2022-09-24T13:22:15.030Z,70
2022-09-24T13:23:21.545Z,70
2022-09-24T13:24:28.547Z,70
2022-09-24T13:25:35.614Z,70
2022-09-24T13:26:42.815Z,70
2022-09-24T13:27:49.918Z,70
2022-09-24T13:28:56.564Z,70
2022-09-24T13:30:03.608Z,70
2022-09-24T13:31:10.802Z,70
2022-09-24T13:32:17.338Z,70
2022-09-24T13:33:24.930Z,70
2022-09-24T13:34:31.581Z,70
2022-09-24T13:35:38.658Z,70
2022-09-24T13:36:48.854Z,69
2022-09-24T13:37:52.804Z,69
2022-09-24T13:40:06.822Z,69
2022-09-24T13:41:13.565Z,69
2022-09-24T13:42:20.792Z,70
2022-09-24T13:43:27.779Z,70
2022-09-24T13:44:34.422Z,70
2022-09-24T13:45:41.573Z,70
2022-09-24T13:46:48.893Z,70
2022-09-24T13:47:55.687Z,70
2022-09-24T13:49:02.989Z,70
2022-09-24T13:50:09.448Z,70
2022-09-24T13:51:16.550Z,69
2022-09-24T13:52:23.610Z,69
2022-09-24T13:53:30.780Z,69
2022-09-24T13:54:37.890Z,69
2022-09-24T13:55:44.353Z,69
2022-09-24T13:56:52.557Z,68
2022-09-24T13:57:58.656Z,69
2022-09-24T13:59:05.783Z,69
2022-09-24T14:01:20.035Z,68
2022-09-24T14:03:33.747Z,69
2022-09-24T14:04:40.766Z,69
2022-09-24T14:05:47.861Z,69
2022-09-24T14:06:54.560Z,68
2022-09-24T14:08:01.565Z,68
2022-09-24T14:09:08.830Z,68
2022-09-24T14:10:15.684Z,68
2022-09-24T14:11:22.876Z,68
2022-09-24T14:12:29.503Z,68
2022-09-24T14:13:36.617Z,68
2022-09-24T14:14:44.067Z,68
2022-09-24T14:15:50.819Z,68
2022-09-24T14:16:57.928Z,68
2022-09-24T14:18:07.003Z,68
2022-09-24T14:19:11.676Z,68
2022-09-24T14:21:26.411Z,69
2022-09-24T14:22:33.070Z,69
2022-09-24T14:23:39.493Z,69
2022-09-24T14:24:46.635Z,69
2022-09-24T14:25:53.605Z,69
2022-09-24T14:27:00.858Z,69
2022-09-24T14:29:14.477Z,69
2022-09-24T14:30:21.520Z,69
2022-09-24T14:31:28.837Z,69
2022-09-24T14:32:35.798Z,69
2022-09-24T14:33:42.963Z,69
2022-09-24T14:34:49.482Z,69
2022-09-24T14:35:56.527Z,69
2022-09-24T14:37:03.598Z,68
2022-09-24T14:38:11.914Z,68
2022-09-24T14:39:17.329Z,68
2022-09-24T14:40:24.619Z,68
2022-09-24T14:41:31.543Z,68
2022-09-24T14:42:38.646Z,68
2022-09-24T14:43:46.009Z,68
2022-09-24T14:45:59.549Z,68
2022-09-24T14:47:07.689Z,68
2022-09-24T14:48:13.615Z,68
2022-09-24T14:49:20.907Z,68
2022-09-24T14:50:28.033Z,68
2022-09-24T14:51:34.540Z,68
2022-09-24T14:52:41.735Z,68
2022-09-24T14:53:48.786Z,68
2022-09-24T14:54:56.036Z,68
2022-09-24T14:57:09.449Z,68
2022-09-24T14:58:16.572Z,67
2022-09-24T14:59:23.755Z,67
2022-09-24T15:00:30.891Z,68
2022-09-24T15:02:44.533Z,68
2022-09-24T15:03:51.694Z,67
2022-09-24T15:05:04.844Z,67
2022-09-24T15:07:12.417Z,67
2022-09-24T15:08:19.549Z,67
2022-09-24T15:09:28.876Z,67
2022-09-24T15:10:33.779Z,67
2022-09-24T15:11:43.375Z,67
2022-09-24T15:12:47.378Z,67
2022-09-24T15:13:54.560Z,67
2022-09-24T15:15:01.846Z,67
2022-09-24T15:16:08.913Z,67
2022-09-24T15:17:15.862Z,67
2022-09-24T15:18:22.469Z,67
2022-09-24T15:19:30.538Z,67
2022-09-24T15:20:36.831Z,67
2022-09-24T15:21:44.352Z,67
2022-09-24T15:22:50.946Z,67
2022-09-24T15:25:05.074Z,66
2022-09-24T15:26:11.763Z,67
2022-09-24T15:27:18.788Z,67
2022-09-24T15:28:25.765Z,67
2022-09-24T15:29:32.509Z,67
2022-09-24T15:30:39.588Z,67
2022-09-24T15:31:46.789Z,67
2022-09-24T15:32:53.673Z,66
2022-09-24T15:34:00.912Z,66
2022-09-24T15:35:07.573Z,66
2022-09-24T15:36:14.472Z,66
2022-09-24T15:37:21.846Z,66
2022-09-24T15:38:28.693Z,66
2022-09-24T15:39:35.917Z,66
2022-09-24T15:40:42.516Z,66
2022-09-24T15:41:49.665Z,66
2022-09-24T15:44:03.805Z,66
2022-09-24T15:45:10.472Z,67
2022-09-24T15:46:17.588Z,67
2022-09-24T15:47:24.512Z,67
2022-09-24T15:48:31.618Z,67
2022-09-24T15:49:38.727Z,67
2022-09-24T15:50:45.375Z,66
2022-09-24T15:52:59.761Z,66
2022-09-24T15:54:06.792Z,67
2022-09-24T15:55:13.699Z,67
2022-09-24T15:56:20.441Z,67
2022-09-24T15:57:27.647Z,67
2022-09-24T15:58:34.503Z,67
2022-09-24T15:59:41.777Z,67
2022-09-24T16:00:49.401Z,67
2022-09-24T16:01:56.017Z,67
2022-09-24T16:03:02.655Z,67
2022-09-24T16:04:09.758Z,67
2022-09-24T16:05:16.957Z,67
2022-09-24T16:06:23.954Z,67
2022-09-24T16:07:30.580Z,67
2022-09-24T16:08:37.617Z,67
2022-09-24T16:10:51.896Z,67
2022-09-24T16:12:00.399Z,67
2022-09-24T16:14:12.642Z,67
2022-09-24T16:15:19.782Z,67
2022-09-24T16:16:26.819Z,67
2022-09-24T16:17:33.992Z,67
2022-09-24T16:18:40.622Z,67
2022-09-24T16:19:47.764Z,67
2022-09-24T16:20:54.530Z,67
2022-09-24T16:22:02.033Z,67
2022-09-24T16:23:09.243Z,67
2022-09-24T16:25:22.526Z,67
2022-09-24T16:26:29.056Z,67
2022-09-24T16:27:36.673Z,67
2022-09-24T16:28:44.058Z,67
2022-09-24T16:29:50.567Z,67
2022-09-24T16:30:57.582Z,67
2022-09-24T16:32:04.786Z,67
2022-09-24T16:33:11.694Z,67
2022-09-24T16:34:18.683Z,67
2022-09-24T16:35:25.377Z,67
2022-09-24T16:36:32.445Z,67
2022-09-24T16:37:39.761Z,67
2022-09-24T16:38:46.869Z,67
2022-09-24T16:39:53.922Z,67
2022-09-24T16:41:00.764Z,67
2022-09-24T16:42:08.531Z,67
2022-09-24T16:43:14.729Z,67
2022-09-24T16:44:21.786Z,67
2022-09-24T16:45:29.187Z,67
2022-09-24T16:46:35.413Z,68
2022-09-24T16:47:42.469Z,68
2022-09-24T16:48:49.768Z,68
2022-09-24T16:49:57.467Z,68
2022-09-24T16:51:04.047Z,68
2022-09-24T16:52:10.359Z,68
2022-09-24T16:53:17.689Z,68
2022-09-24T16:54:24.211Z,68
2022-09-24T16:55:31.800Z,68
2022-09-24T16:56:38.593Z,68
2022-09-24T16:57:45.554Z,68
2022-09-24T16:58:52.652Z,69
2022-09-24T16:59:59.816Z,69
2022-09-24T17:01:07.060Z,68
2022-09-24T17:02:13.457Z,68
2022-09-24T17:03:20.631Z,68
2022-09-24T17:04:27.676Z,68
2022-09-24T17:06:41.860Z,68